createdAt,value
2019-02-07T00:01:06.383Z,101188.53
2019-02-07T00:06:14.307Z,101174.41
2019-02-07T00:11:23.804Z,101168.33
2019-02-07T00:16:30.768Z,101166.78
2019-02-07T00:21:38.464Z,101162.81
2019-02-07T00:26:46.501Z,101152.50
2019-02-07T00:31:52.314Z,101146.92
2019-02-07T00:37:00.003Z,101148.84
2019-02-07T00:42:06.250Z,101142.33
2019-02-07T00:47:12.546Z,101136.55
2019-02-07T00:52:19.936Z,101132.59
2019-02-07T00:57:25.650Z,101129.16
2019-02-07T01:02:31.757Z,101123.69
2019-02-07T01:07:39.021Z,101122.02
2019-02-07T01:12:45.814Z,101105.41
2019-02-07T01:17:53.914Z,101106.85
2019-02-07T01:23:01.326Z,101092.75
2019-02-07T01:28:07.288Z,101087.48
2019-02-07T01:33:13.180Z,101089.51
2019-02-07T01:38:19.246Z,101082.48
2019-02-07T01:43:25.143Z,101079.91
2019-02-07T01:48:32.198Z,101085.92
2019-02-07T01:53:37.846Z,101073.87
2019-02-07T01:58:45.716Z,101063.26
2019-02-07T02:03:52.326Z,101056.84
2019-02-07T02:08:58.269Z,101046.45
2019-02-07T02:14:05.298Z,101037.39
2019-02-07T02:19:11.118Z,101028.50
2019-02-07T02:24:17.693Z,101001.82
2019-02-07T02:29:23.874Z,100984.95
2019-02-07T02:34:30.719Z,101002.03
2019-02-07T02:39:37.106Z,100984.03
2019-02-07T02:44:43.666Z,100987.72
2019-02-07T02:49:49.775Z,100972.44
2019-02-07T02:54:55.909Z,100968.94
2019-02-07T03:00:01.699Z,100963.84
2019-02-07T03:05:27.862Z,100965.56
2019-02-07T03:10:38.276Z,100957.30
2019-02-07T03:15:50.369Z,100954.43
2019-02-07T03:21:03.891Z,100943.88
2019-02-07T03:26:15.737Z,100933.79
2019-02-07T03:31:23.004Z,100925.66
2019-02-07T03:36:36.548Z,100915.11
2019-02-07T03:41:49.911Z,100914.91
2019-02-07T03:46:57.575Z,100905.02
2019-02-07T03:52:05.183Z,100901.06
2019-02-07T03:57:17.349Z,100901.32
2019-02-07T04:02:25.283Z,100895.59
2019-02-07T04:07:42.775Z,100887.20
2019-02-07T04:12:52.961Z,100887.72
2019-02-07T04:18:09.623Z,100885.78
2019-02-07T04:23:25.669Z,100881.03
2019-02-07T04:28:38.753Z,100882.72
2019-02-07T04:33:48.942Z,100875.08
2019-02-07T04:39:12.008Z,100863.36
2019-02-07T04:44:29.209Z,100845.97
2019-02-07T04:49:44.807Z,100836.55
2019-02-07T04:54:52.411Z,100829.27
2019-02-07T05:00:02.850Z,100816.75
2019-02-07T05:05:20.994Z,100812.64
2019-02-07T05:10:46.975Z,100806.05
2019-02-07T05:16:13.361Z,100815.41
2019-02-07T05:21:25.371Z,100799.58
2019-02-07T05:26:37.124Z,100796.02
2019-02-07T05:31:47.270Z,100782.53
2019-02-07T05:36:55.231Z,100787.94
2019-02-07T05:42:05.304Z,100771.44
2019-02-07T05:47:29.078Z,100777.66
2019-02-07T05:52:39.470Z,100770.31
2019-02-07T05:58:03.740Z,100770.08
2019-02-07T06:03:12.017Z,100765.11
2019-02-07T06:08:38.209Z,100751.98
2019-02-07T06:13:48.514Z,100755.61
2019-02-07T06:19:09.911Z,100748.05
2019-02-07T06:24:31.627Z,100745.63
2019-02-07T06:29:42.273Z,100728.52
2019-02-07T06:34:58.527Z,100734.09
2019-02-07T06:40:08.887Z,100735.84
2019-02-07T06:45:19.943Z,100724.50
2019-02-07T06:50:28.042Z,100704.84
2019-02-07T06:55:38.113Z,100703.78
2019-02-07T07:00:46.330Z,100697.27
2019-02-07T07:05:56.716Z,100698.30
2019-02-07T07:11:10.559Z,100701.38
2019-02-07T07:16:21.735Z,100703.09
2019-02-07T07:21:38.410Z,100709.88
2019-02-07T07:26:50.242Z,100696.36
2019-02-07T07:31:58.722Z,100707.95
2019-02-07T07:37:21.471Z,100699.31
2019-02-07T07:42:29.152Z,100699.94
2019-02-07T07:47:53.224Z,100686.23
2019-02-07T07:53:00.962Z,100670.72
2019-02-07T07:58:24.710Z,100660.27
2019-02-07T08:03:41.347Z,100649.45
2019-02-07T08:08:53.046Z,100650.43
2019-02-07T08:14:13.137Z,100646.16
2019-02-07T08:19:21.142Z,100642.26
2019-02-07T08:24:31.471Z,100640.24
2019-02-07T08:29:55.305Z,100628.08
2019-02-07T08:35:21.786Z,100619.67
2019-02-07T08:40:38.343Z,100613.05
2019-02-07T08:45:50.187Z,100599.70
2019-02-07T08:50:58.750Z,100592.22
2019-02-07T08:56:14.335Z,100588.17
2019-02-07T09:01:39.143Z,100571.72
2019-02-07T09:06:49.638Z,100562.52
2019-02-07T09:12:01.177Z,100558.57
2019-02-07T09:17:14.365Z,100547.99
2019-02-07T09:22:23.928Z,100542.41
2019-02-07T09:27:49.352Z,100534.39
2019-02-07T09:33:06.485Z,100532.64
2019-02-07T09:38:29.242Z,100538.38
2019-02-07T09:43:39.363Z,100544.25
2019-02-07T09:49:05.371Z,100530.31
2019-02-07T09:54:12.983Z,100510.87
2019-02-07T09:59:28.544Z,100519.05
2019-02-07T10:04:36.642Z,100517.21
2019-02-07T10:10:00.973Z,100527.14
2019-02-07T10:15:25.709Z,100517.44
2019-02-07T10:20:33.147Z,100501.69
2019-02-07T10:25:41.909Z,100488.89
2019-02-07T10:30:59.323Z,100481.52
2019-02-07T10:36:09.803Z,100482.56
2019-02-07T10:41:20.535Z,100482.42
2019-02-07T10:46:28.306Z,100468.88
2019-02-07T10:51:46.070Z,100460.98
2019-02-07T10:57:04.924Z,100445.38
2019-02-07T11:02:23.799Z,100435.11
2019-02-07T11:07:31.782Z,100428.72
2019-02-07T11:12:52.224Z,100423.31
2019-02-07T11:18:03.460Z,100410.23
2019-02-07T11:23:14.969Z,100398.16
2019-02-07T11:28:34.748Z,100389.14
2019-02-07T11:33:45.099Z,100377.55
2019-02-07T11:38:52.446Z,100352.37
2019-02-07T11:44:16.990Z,100351.48
2019-02-07T11:49:33.337Z,100356.33
2019-02-07T11:54:41.285Z,100350.13
2019-02-07T12:00:07.949Z,100349.21
2019-02-07T12:05:33.850Z,100349.55
2019-02-07T12:10:59.603Z,100342.67
2019-02-07T12:16:20.115Z,100354.16
2019-02-07T12:21:33.336Z,100348.31
2019-02-07T12:26:47.121Z,100325.77
2019-02-07T12:32:03.410Z,100331.52
2019-02-07T12:37:17.552Z,100336.84
2019-02-07T12:42:30.875Z,100320.42
2019-02-07T12:47:47.154Z,100343.86
2019-02-07T12:53:04.792Z,100321.87
2019-02-07T12:58:21.524Z,100290.24
2019-02-07T13:03:29.487Z,100294.66
2019-02-07T13:08:41.636Z,100283.42
2019-02-07T13:13:59.375Z,100278.13
2019-02-07T13:19:13.777Z,100279.50
2019-02-07T13:24:27.542Z,100296.30
2019-02-07T13:29:53.480Z,100296.48
2019-02-07T13:35:04.276Z,100294.65
2019-02-07T13:40:25.895Z,100291.18
2019-02-07T13:45:42.480Z,100305.31
2019-02-07T13:51:05.900Z,100309.00
2019-02-07T13:56:13.228Z,100332.53
2019-02-07T14:01:22.962Z,100321.84
2019-02-07T14:06:37.238Z,100315.52
2019-02-07T14:12:04.554Z,100321.45
2019-02-07T14:17:19.177Z,100321.02
2019-02-07T14:22:29.841Z,100320.03
2019-02-07T14:27:47.072Z,100329.88
2019-02-07T14:33:13.197Z,100322.69
2019-02-07T14:38:22.284Z,100308.79
2019-02-07T14:43:30.040Z,100320.05
2019-02-07T14:48:35.770Z,100333.13
2019-02-07T14:53:42.027Z,100312.04
2019-02-07T14:58:49.181Z,100300.28
2019-02-07T15:03:55.206Z,100305.60
2019-02-07T15:09:03.215Z,100316.30
2019-02-07T15:14:10.263Z,100302.58
2019-02-07T15:19:15.998Z,100288.59
2019-02-07T15:24:22.937Z,100278.30
2019-02-07T15:29:28.781Z,100274.73
2019-02-07T15:34:34.602Z,100296.84
2019-02-07T15:39:41.225Z,100294.03
2019-02-07T15:44:47.860Z,100286.30
2019-02-07T15:49:54.065Z,100286.22
2019-02-07T15:54:59.943Z,100297.59
2019-02-07T16:00:16.338Z,100297.32
2019-02-07T16:05:23.433Z,100285.92
2019-02-07T16:10:29.406Z,100286.67
2019-02-07T16:15:36.173Z,100324.98
2019-02-07T16:20:48.977Z,100295.83
2019-02-07T16:25:50.790Z,100309.67
2019-02-07T16:30:56.552Z,100291.89
2019-02-07T16:36:02.296Z,100302.45
2019-02-07T16:41:10.534Z,100322.37
2019-02-07T16:46:15.826Z,100316.92
2019-02-07T16:51:22.240Z,100317.84
2019-02-07T16:56:28.530Z,100326.32
2019-02-07T17:01:34.637Z,100324.19
2019-02-07T17:06:40.927Z,100340.06
2019-02-07T17:11:48.669Z,100352.03
2019-02-07T17:16:54.629Z,100368.32
2019-02-07T17:22:03.748Z,100348.09
2019-02-07T17:27:13.341Z,100355.00
2019-02-07T17:32:20.533Z,100355.72
2019-02-07T17:37:27.261Z,100371.42
2019-02-07T17:42:33.337Z,100367.95
2019-02-07T17:47:39.900Z,100367.38
2019-02-07T17:52:46.944Z,100361.58
2019-02-07T17:57:53.912Z,100367.77
2019-02-07T18:03:02.065Z,100383.33
2019-02-07T18:08:09.303Z,100386.61
2019-02-07T18:13:16.993Z,100391.73
2019-02-07T18:18:23.241Z,100401.06
2019-02-07T18:23:28.871Z,100393.23
2019-02-07T18:28:34.821Z,100403.03
2019-02-07T18:33:42.208Z,100403.25
2019-02-07T18:38:49.867Z,100408.46
2019-02-07T18:43:56.271Z,100415.53
2019-02-07T18:49:02.983Z,100404.95
2019-02-07T18:54:09.414Z,100409.94
2019-02-07T18:59:16.088Z,100402.92
2019-02-07T19:04:21.952Z,100413.11
2019-02-07T19:09:28.023Z,100416.49
2019-02-07T19:14:35.045Z,100420.09
2019-02-07T19:19:41.154Z,100413.55
2019-02-07T19:24:48.627Z,100427.58
2019-02-07T19:29:55.029Z,100422.63
2019-02-07T19:35:01.895Z,100419.85
2019-02-07T19:40:10.866Z,100433.25
2019-02-07T19:45:21.784Z,100437.75
2019-02-07T19:50:28.501Z,100422.16
2019-02-07T19:55:34.526Z,100445.36
2019-02-07T20:00:40.906Z,100449.41
2019-02-07T20:05:46.542Z,100442.56
2019-02-07T20:10:57.114Z,100439.80
2019-02-07T20:16:05.101Z,100438.75
2019-02-07T20:21:11.146Z,100443.56
2019-02-07T20:26:17.638Z,100441.48
2019-02-07T20:31:23.583Z,100456.17
2019-02-07T20:36:31.140Z,100458.58
2019-02-07T20:41:37.027Z,100456.81
2019-02-07T20:46:45.236Z,100459.28
2019-02-07T20:51:52.895Z,100472.30
2019-02-07T20:56:59.002Z,100473.97
2019-02-07T21:02:05.810Z,100478.85
2019-02-07T21:07:14.354Z,100473.81
2019-02-07T21:12:20.394Z,100486.89
2019-02-07T21:17:27.346Z,100500.73
2019-02-07T21:22:34.683Z,100494.09
2019-02-07T21:27:40.612Z,100491.70
2019-02-07T21:32:49.433Z,100491.52
